Time;durP1;ratioP1;P1;durP2;ratioP2;P2;SDS_P1;SDS_P2;PMS_P1;PMS_P2;Temp;Humidity;BMP_temperature;BMP_pressure;BME280_temperature;BME280_humidity;BME280_pressure;Samples;Min_cycle;Max_cycle;Signal;HPM_P1;HPM_P2
2021/05/07 00:00:36;;;;;;;8.20;5.73;;;7.70;98.30;;;;;;4173246;28;20481;-84
2021/05/07 00:02:38;;;;;;;7.30;4.97;;;7.70;98.30;;;;;;4171685;28;20497;-84
2021/05/07 00:04:41;;;;;;;11.87;5.70;;;7.70;98.30;;;;;;4170430;28;21027;-84
2021/05/07 00:06:44;;;;;;;11.93;6.50;;;7.70;98.30;;;;;;4171306;28;20903;-84
2021/05/07 00:08:46;;;;;;;9.30;5.87;;;7.70;98.30;;;;;;4171395;28;20493;-84
2021/05/07 00:10:48;;;;;;;13.90;6.30;;;7.70;98.30;;;;;;4169673;28;20497;-84
2021/05/07 00:12:50;;;;;;;9.60;6.20;;;7.80;98.30;;;;;;4170473;28;21030;-84
2021/05/07 00:14:52;;;;;;;9.90;5.93;;;7.80;98.30;;;;;;4170516;28;21005;-85
2021/05/07 00:16:56;;;;;;;9.97;5.63;;;7.80;98.30;;;;;;4169910;28;20559;-84
2021/05/07 00:18:58;;;;;;;8.73;5.60;;;7.80;98.30;;;;;;4169311;28;20567;-84
2021/05/07 00:21:13;;;;;;;9.87;5.60;;;7.80;98.30;;;;;;4170027;28;20492;-85
2021/05/07 00:23:15;;;;;;;10.20;5.77;;;7.80;98.30;;;;;;4169759;28;20474;-85
2021/05/07 00:25:17;;;;;;;8.10;5.30;;;7.80;98.30;;;;;;4170106;28;20846;-84
2021/05/07 00:27:19;;;;;;;9.50;5.70;;;7.80;98.30;;;;;;4168696;28;20908;-84
2021/05/07 00:29:21;;;;;;;8.70;5.80;;;7.70;98.30;;;;;;4176436;28;20473;-84
2021/05/07 00:31:23;;;;;;;9.43;6.57;;;7.70;98.30;;;;;;4171553;28;20517;-84
2021/05/07 00:33:25;;;;;;;11.77;5.93;;;7.70;98.30;;;;;;4168412;28;20515;-85
2021/05/07 00:35:27;;;;;;;14.97;6.10;;;7.70;98.30;;;;;;4169969;28;20511;-85
2021/05/07 00:37:30;;;;;;;8.43;5.70;;;7.60;98.30;;;;;;4168340;28;20550;-84
2021/05/07 00:39:32;;;;;;;7.77;5.23;;;7.60;98.30;;;;;;4170995;28;20551;-84
2021/05/07 00:41:34;;;;;;;10.83;5.80;;;7.70;98.30;;;;;;4169553;28;20466;-84
2021/05/07 00:43:47;;;;;;;8.50;4.97;;;7.70;98.30;;;;;;4169825;28;21025;-84
2021/05/07 00:45:51;;;;;;;11.67;6.73;;;7.70;98.30;;;;;;4170591;28;20947;-84
2021/05/07 00:47:57;;;;;;;8.30;5.10;;;7.70;98.30;;;;;;4169775;28;20479;-84
2021/05/07 00:50:00;;;;;;;7.43;5.00;;;7.70;98.30;;;;;;4170663;28;20494;-84
2021/05/07 00:52:04;;;;;;;7.27;5.03;;;7.70;98.30;;;;;;4169445;28;20756;-84
2021/05/07 00:54:07;;;;;;;7.07;4.40;;;7.70;98.30;;;;;;4169424;28;20598;-84
2021/05/07 00:56:10;;;;;;;5.53;4.40;;;7.70;98.30;;;;;;4169022;28;20870;-85
2021/05/07 00:58:12;;;;;;;10.43;4.80;;;7.70;98.30;;;;;;4171477;28;20575;-84
2021/05/07 01:00:15;;;;;;;6.23;4.30;;;7.70;98.30;;;;;;4170306;28;20527;-84
2021/05/07 01:02:17;;;;;;;7.37;4.17;;;7.70;98.30;;;;;;4170637;28;21028;-84
2021/05/07 01:04:20;;;;;;;5.67;4.23;;;7.70;98.30;;;;;;4169503;28;20522;-85
2021/05/07 01:06:22;;;;;;;7.00;4.57;;;7.70;98.30;;;;;;4168315;28;20504;-84
2021/05/07 01:08:25;;;;;;;6.20;4.00;;;7.70;98.30;;;;;;4170791;28;20584;-85
2021/05/07 01:10:27;;;;;;;6.00;3.70;;;7.70;98.30;;;;;;4168295;28;20476;-85
2021/05/07 01:12:29;;;;;;;8.30;4.53;;;7.80;98.30;;;;;;4169085;28;20483;-85
2021/05/07 01:14:31;;;;;;;6.90;3.83;;;7.80;98.30;;;;;;4167265;28;20496;-85
2021/05/07 01:16:33;;;;;;;5.17;4.43;;;7.70;98.30;;;;;;4169944;28;20506;-84
2021/05/07 01:18:36;;;;;;;6.07;3.87;;;7.80;98.30;;;;;;4167686;28;20562;-84
2021/05/07 01:20:39;;;;;;;7.03;3.80;;;7.80;98.30;;;;;;4169216;28;20461;-85
2021/05/07 01:22:43;;;;;;;5.93;4.43;;;7.70;98.30;;;;;;4169103;28;20485;-85
2021/05/07 01:24:46;;;;;;;6.17;4.03;;;7.70;98.30;;;;;;4168685;28;20503;-85
2021/05/07 01:26:48;;;;;;;7.50;4.20;;;7.70;98.30;;;;;;4169143;28;20460;-85
2021/05/07 01:28:50;;;;;;;9.23;4.73;;;7.80;98.30;;;;;;4168355;28;20490;-86
2021/05/07 01:30:52;;;;;;;6.17;4.80;;;7.80;98.30;;;;;;4168698;28;20821;-85
2021/05/07 01:32:54;;;;;;;6.63;3.70;;;7.80;98.30;;;;;;4169255;28;20459;-85
2021/05/07 01:34:56;;;;;;;8.77;4.23;;;7.80;98.30;;;;;;4168095;28;21022;-86
2021/05/07 01:36:59;;;;;;;5.97;4.13;;;7.70;98.30;;;;;;4169401;28;20538;-85
2021/05/07 01:39:01;;;;;;;7.03;4.90;;;7.70;98.30;;;;;;4168894;28;20868;-85
2021/05/07 01:41:04;;;;;;;6.90;4.27;;;7.70;98.30;;;;;;4169806;28;21222;-85
2021/05/07 01:43:06;;;;;;;5.60;4.30;;;7.70;98.30;;;;;;4168496;28;20470;-85
2021/05/07 01:45:09;;;;;;;7.03;4.23;;;7.70;98.30;;;;;;4168729;28;20557;-86
2021/05/07 01:47:11;;;;;;;7.50;3.90;;;7.70;98.30;;;;;;4166517;28;20583;-85
2021/05/07 01:49:14;;;;;;;7.93;3.60;;;7.70;98.30;;;;;;4168696;28;20456;-86
2021/05/07 01:51:16;;;;;;;6.43;3.80;;;7.70;98.30;;;;;;4169232;28;20522;-86
2021/05/07 01:53:19;;;;;;;6.60;4.23;;;7.70;98.30;;;;;;4169747;28;20494;-86
2021/05/07 01:55:24;;;;;;;4.83;3.70;;;7.60;98.30;;;;;;4168126;28;20498;-84
2021/05/07 01:57:28;;;;;;;8.83;4.23;;;7.60;98.30;;;;;;4164741;28;20544;-85
2021/05/07 01:59:30;;;;;;;6.67;4.37;;;7.60;98.30;;;;;;4162223;28;21020;-84
2021/05/07 02:01:32;;;;;;;5.83;4.10;;;7.60;98.30;;;;;;4166224;28;20528;-84
2021/05/07 02:03:34;;;;;;;7.60;3.80;;;7.50;98.30;;;;;;4168170;28;20496;-85
2021/05/07 02:05:37;;;;;;;8.23;4.30;;;7.60;98.30;;;;;;4167225;28;20590;-85
2021/05/07 02:07:39;;;;;;;7.57;4.00;;;7.60;98.30;;;;;;4165304;28;20521;-85
2021/05/07 02:09:42;;;;;;;6.30;5.13;;;7.70;98.30;;;;;;4166224;28;20491;-86
2021/05/07 02:11:44;;;;;;;5.23;3.80;;;7.70;98.30;;;;;;4165940;28;20497;-85
2021/05/07 02:13:46;;;;;;;8.00;3.93;;;7.70;98.30;;;;;;4168267;28;20521;-86
2021/05/07 02:15:48;;;;;;;5.23;4.00;;;7.70;98.30;;;;;;4168803;28;20480;-86
2021/05/07 02:17:51;;;;;;;7.37;4.87;;;7.60;98.30;;;;;;4167867;28;21009;-85
2021/05/07 02:19:53;;;;;;;8.07;4.33;;;7.60;98.30;;;;;;4171557;28;20546;-86
2021/05/07 02:21:55;;;;;;;5.13;4.27;;;7.70;98.30;;;;;;4167255;28;20491;-86
2021/05/07 02:23:59;;;;;;;8.60;4.00;;;7.80;98.30;;;;;;4167836;28;20966;-86
2021/05/07 02:26:02;;;;;;;5.30;3.90;;;7.70;98.30;;;;;;4167877;28;20886;-86
2021/05/07 02:28:04;;;;;;;5.07;3.80;;;7.60;98.30;;;;;;4169294;28;21067;-85
2021/05/07 02:30:09;;;;;;;7.10;4.23;;;7.60;98.30;;;;;;4172473;28;20508;-85
2021/05/07 02:32:11;;;;;;;5.47;4.23;;;7.50;98.30;;;;;;4163927;28;20485;-85
2021/05/07 02:34:13;;;;;;;7.97;4.27;;;7.60;98.30;;;;;;4164825;28;20567;-85
2021/05/07 02:36:16;;;;;;;10.37;4.20;;;7.60;98.30;;;;;;4165373;28;20499;-85
2021/05/07 02:38:19;;;;;;;7.20;4.47;;;7.60;98.30;;;;;;4169408;28;21039;-85
2021/05/07 02:40:21;;;;;;;8.73;3.83;;;7.60;98.30;;;;;;4165216;28;20459;-85
2021/05/07 02:42:24;;;;;;;9.03;4.10;;;7.70;98.30;;;;;;4168482;28;20588;-85
2021/05/07 02:44:27;;;;;;;9.60;4.27;;;7.70;98.30;;;;;;4167728;28;20478;-85
2021/05/07 02:46:31;;;;;;;11.43;4.90;;;7.80;98.30;;;;;;4167184;28;20469;-85
2021/05/07 02:48:33;;;;;;;6.27;4.30;;;7.70;98.30;;;;;;4165087;28;20494;-85
2021/05/07 02:50:35;;;;;;;7.73;4.27;;;7.70;98.30;;;;;;4167072;28;20586;-85
2021/05/07 02:52:40;;;;;;;8.77;4.40;;;7.50;98.30;;;;;;4167461;28;20462;-85
2021/05/07 02:54:42;;;;;;;9.30;4.23;;;7.50;98.30;;;;;;4167817;28;20544;-86
2021/05/07 02:56:44;;;;;;;5.20;3.73;;;7.40;98.30;;;;;;4167779;28;20899;-85
2021/05/07 02:58:47;;;;;;;10.40;4.40;;;7.40;98.30;;;;;;4176384;28;20527;-84
2021/05/07 03:00:49;;;;;;;7.13;4.00;;;7.20;98.30;;;;;;4171720;28;21022;-84
2021/05/07 03:02:52;;;;;;;12.00;5.10;;;7.00;98.30;;;;;;4174224;28;20451;-86
2021/05/07 03:04:54;;;;;;;7.87;4.40;;;7.00;98.30;;;;;;4168640;28;20492;-83
2021/05/07 03:06:56;;;;;;;5.80;4.17;;;7.00;98.30;;;;;;4172033;28;20486;-83
2021/05/07 03:08:58;;;;;;;8.60;4.20;;;7.00;98.30;;;;;;4170736;28;20464;-83
2021/05/07 03:11:00;;;;;;;5.87;4.60;;;7.00;98.30;;;;;;4173718;28;20578;-84
2021/05/07 03:13:03;;;;;;;14.53;4.23;;;6.90;98.30;;;;;;4176123;28;20509;-85
2021/05/07 03:15:07;;;;;;;6.13;4.23;;;6.80;98.30;;;;;;4177565;28;20520;-84
2021/05/07 03:17:09;;;;;;;7.73;4.60;;;6.70;98.30;;;;;;4173119;28;20464;-83
2021/05/07 03:19:12;;;;;;;8.00;5.10;;;6.60;98.30;;;;;;4180867;28;20498;-84
2021/05/07 03:21:14;;;;;;;6.77;4.67;;;6.40;98.30;;;;;;4178859;28;20497;-86
2021/05/07 03:23:16;;;;;;;9.43;5.50;;;6.40;98.30;;;;;;4185303;28;20473;-84
2021/05/07 03:25:18;;;;;;;8.60;5.10;;;6.40;98.30;;;;;;4183269;28;20484;-85
2021/05/07 03:27:20;;;;;;;18.37;7.60;;;6.50;98.30;;;;;;4176949;28;20451;-85
2021/05/07 03:29:22;;;;;;;15.50;10.17;;;6.50;98.30;;;;;;4179210;28;20485;-84
2021/05/07 03:31:25;;;;;;;14.07;8.63;;;6.50;98.30;;;;;;4181993;28;20530;-84
2021/05/07 03:33:27;;;;;;;8.07;5.20;;;6.70;98.30;;;;;;4174666;28;20547;-84
2021/05/07 03:35:30;;;;;;;16.43;5.30;;;6.60;98.30;;;;;;4174155;28;20495;-86
2021/05/07 03:37:32;;;;;;;7.97;5.27;;;6.50;98.30;;;;;;4178889;28;21035;-84
2021/05/07 03:39:34;;;;;;;6.47;4.83;;;6.30;98.30;;;;;;4170931;28;21032;-83
2021/05/07 03:41:37;;;;;;;6.97;4.77;;;6.20;98.30;;;;;;4176674;28;21001;-84
2021/05/07 03:43:39;;;;;;;8.80;5.80;;;6.20;98.30;;;;;;4171009;28;20518;-84
2021/05/07 03:45:41;;;;;;;6.90;4.37;;;6.20;98.30;;;;;;4174146;28;20484;-84
2021/05/07 03:47:44;;;;;;;7.83;4.30;;;6.10;98.30;;;;;;4171800;28;20484;-85
2021/05/07 03:49:46;;;;;;;8.10;4.50;;;6.10;98.30;;;;;;4177545;28;20841;-84
2021/05/07 03:51:49;;;;;;;6.03;4.93;;;6.00;98.30;;;;;;4176054;28;20835;-84
2021/05/07 03:53:51;;;;;;;7.10;4.40;;;6.00;98.30;;;;;;4176647;28;20484;-83
2021/05/07 03:55:56;;;;;;;6.37;4.90;;;6.00;98.30;;;;;;4170648;28;20488;-84
2021/05/07 03:58:00;;;;;;;8.83;6.33;;;6.00;98.30;;;;;;4174533;28;20491;-84
2021/05/07 04:00:03;;;;;;;36.83;21.53;;;6.00;98.30;;;;;;4175973;28;21314;-84
2021/05/07 04:02:05;;;;;;;8.13;5.03;;;6.00;98.30;;;;;;4171289;28;20541;-84
2021/05/07 04:04:09;;;;;;;9.33;4.67;;;6.00;98.30;;;;;;4174382;28;21003;-85
2021/05/07 04:06:16;;;;;;;7.53;4.90;;;6.10;98.30;;;;;;4174523;28;21077;-84
2021/05/07 04:08:22;;;;;;;10.60;5.10;;;6.00;98.30;;;;;;4179104;28;20487;-84
2021/05/07 04:10:24;;;;;;;5.77;4.13;;;6.10;98.30;;;;;;4172831;28;20493;-84
2021/05/07 04:14:43;;;;;;;6.33;4.60;;;6.10;98.30;;;;;;4180125;28;20507;-86
2021/05/07 04:16:45;;;;;;;8.03;5.00;;;6.10;98.30;;;;;;4181893;28;20553;-83
2021/05/07 04:18:48;;;;;;;7.40;5.33;;;6.10;98.30;;;;;;4179985;28;20532;-85
2021/05/07 04:20:52;;;;;;;7.27;4.23;;;6.00;98.30;;;;;;4179354;28;20491;-83
2021/05/07 04:22:56;;;;;;;5.73;4.30;;;6.00;98.30;;;;;;4183407;28;20478;-84
2021/05/07 04:24:59;;;;;;;6.23;4.03;;;6.00;98.30;;;;;;4184855;28;20479;-86
2021/05/07 04:27:01;;;;;;;5.43;4.43;;;5.90;98.30;;;;;;4181642;28;20518;-84
2021/05/07 04:29:04;;;;;;;8.10;5.37;;;6.00;98.30;;;;;;4175669;28;20490;-85
2021/05/07 04:31:06;;;;;;;5.10;4.33;;;6.00;98.30;;;;;;4173057;28;20853;-84
2021/05/07 04:33:09;;;;;;;4.60;4.20;;;6.00;98.30;;;;;;4174994;28;20478;-84
2021/05/07 04:35:11;;;;;;;5.27;4.67;;;5.90;98.30;;;;;;4171786;28;20920;-85
2021/05/07 04:37:18;;;;;;;9.13;5.47;;;5.90;98.30;;;;;;4173499;28;21078;-85
2021/05/07 04:39:20;;;;;;;7.50;4.47;;;5.90;98.30;;;;;;4175258;28;20732;-85
2021/05/07 04:41:22;;;;;;;5.67;4.60;;;5.90;98.30;;;;;;4175459;28;20981;-84
2021/05/07 04:43:24;;;;;;;6.57;3.80;;;6.00;98.30;;;;;;4172682;28;20582;-84
2021/05/07 04:45:30;;;;;;;4.97;4.20;;;6.00;98.30;;;;;;4173452;28;20595;-84
2021/05/07 04:47:32;;;;;;;7.23;3.70;;;6.00;98.30;;;;;;4172281;28;20483;-84
2021/05/07 04:49:34;;;;;;;10.23;4.43;;;6.00;98.30;;;;;;4171231;28;21122;-84
2021/05/07 04:51:36;;;;;;;8.43;3.80;;;6.00;98.30;;;;;;4176921;28;21014;-84
2021/05/07 04:53:42;;;;;;;7.23;3.70;;;5.90;98.30;;;;;;4174653;28;20488;-84
2021/05/07 04:55:44;;;;;;;8.67;4.40;;;5.90;98.30;;;;;;4178799;28;20502;-84
2021/05/07 04:57:46;;;;;;;6.27;4.40;;;6.00;98.30;;;;;;4179440;28;20491;-84
2021/05/07 04:59:48;;;;;;;6.40;5.63;;;6.00;98.30;;;;;;4168888;28;20505;-83
2021/05/07 05:01:51;;;;;;;6.10;5.13;;;6.10;98.30;;;;;;4171067;28;20532;-84
2021/05/07 05:03:53;;;;;;;7.03;4.67;;;6.10;98.30;;;;;;4174405;28;20488;-84
2021/05/07 05:05:58;;;;;;;8.47;5.07;;;6.10;98.30;;;;;;4171633;28;20515;-84
2021/05/07 05:08:00;;;;;;;7.00;4.73;;;6.10;98.30;;;;;;4357075;22;20588;-82
2021/05/07 05:10:03;;;;;;;4.40;4.00;;;6.20;98.30;;;;;;4194508;28;20497;-82
2021/05/07 05:12:07;;;;;;;6.03;4.47;;;6.10;98.30;;;;;;4195298;28;20515;-81
2021/05/07 05:14:10;;;;;;;5.30;4.43;;;6.20;98.30;;;;;;4194470;28;20501;-82
2021/05/07 05:16:12;;;;;;;6.37;4.37;;;6.20;98.30;;;;;;4193947;28;20487;-82
2021/05/07 05:18:24;;;;;;;4.77;4.10;;;6.30;98.30;;;;;;4194354;28;20578;-82
2021/05/07 05:20:26;;;;;;;5.60;3.70;;;6.10;98.30;;;;;;4192535;28;20525;-82
2021/05/07 05:22:28;;;;;;;6.90;4.00;;;6.00;98.30;;;;;;4193986;28;21098;-82
2021/05/07 05:24:30;;;;;;;5.67;3.73;;;6.00;98.30;;;;;;4194190;28;20494;-82
2021/05/07 05:26:33;;;;;;;6.63;3.87;;;6.00;98.30;;;;;;4193674;28;20947;-82
2021/05/07 05:28:36;;;;;;;5.07;3.50;;;6.10;98.30;;;;;;4194499;28;20490;-82
2021/05/07 05:30:38;;;;;;;5.10;3.57;;;6.10;98.30;;;;;;4194767;28;20615;-82
2021/05/07 05:32:40;;;;;;;5.17;3.60;;;6.00;98.30;;;;;;4194099;28;20536;-82
2021/05/07 05:34:44;;;;;;;4.47;3.87;;;6.00;98.30;;;;;;4192733;28;20829;-82
2021/05/07 05:36:46;;;;;;;5.80;4.00;;;6.00;98.30;;;;;;4192611;28;20489;-82
2021/05/07 05:38:48;;;;;;;5.30;4.13;;;6.10;98.30;;;;;;4193126;28;20522;-81
2021/05/07 05:40:50;;;;;;;4.20;3.63;;;6.00;98.30;;;;;;4188950;28;20842;-82
2021/05/07 05:42:53;;;;;;;5.27;3.53;;;6.00;98.30;;;;;;4192770;28;20840;-81
2021/05/07 05:44:55;;;;;;;7.13;4.00;;;6.00;98.30;;;;;;4192563;28;20994;-82
2021/05/07 05:46:57;;;;;;;3.90;3.50;;;5.90;98.30;;;;;;4192073;28;20913;-82
2021/05/07 05:48:59;;;;;;;3.90;3.30;;;6.00;98.30;;;;;;4194792;28;20482;-82
2021/05/07 05:51:01;;;;;;;4.00;3.43;;;6.00;98.30;;;;;;4193240;28;20570;-82
2021/05/07 05:53:04;;;;;;;7.30;3.30;;;6.00;98.30;;;;;;4194369;28;20492;-82
2021/05/07 05:55:08;;;;;;;5.70;3.73;;;6.00;98.30;;;;;;4195042;28;20486;-82
2021/05/07 05:57:10;;;;;;;4.83;3.47;;;6.00;98.30;;;;;;4200173;28;20507;-81
2021/05/07 05:59:13;;;;;;;6.37;4.00;;;5.90;98.30;;;;;;4196265;28;20569;-81
2021/05/07 06:01:15;;;;;;;4.10;3.70;;;5.90;98.30;;;;;;4196433;28;20522;-82
2021/05/07 06:03:17;;;;;;;5.83;3.50;;;6.00;98.30;;;;;;4195262;28;20571;-80
2021/05/07 06:05:20;;;;;;;4.53;3.20;;;6.00;98.30;;;;;;4195946;28;20577;-82
2021/05/07 06:07:22;;;;;;;25.60;16.70;;;6.00;98.30;;;;;;4195681;28;21193;-80
2021/05/07 06:09:24;;;;;;;6.70;3.80;;;6.00;98.30;;;;;;4197331;28;20452;-80
2021/05/07 06:11:26;;;;;;;3.90;3.50;;;6.10;98.30;;;;;;4195691;28;20489;-82
2021/05/07 06:13:28;;;;;;;6.90;4.27;;;6.20;98.30;;;;;;4194873;28;20673;-81
2021/05/07 06:15:31;;;;;;;6.03;3.60;;;6.20;98.30;;;;;;4195815;28;21140;-81
2021/05/07 06:17:34;;;;;;;17.43;10.73;;;6.20;98.30;;;;;;4192939;28;20498;-81
2021/05/07 06:19:36;;;;;;;4.60;3.63;;;6.20;98.30;;;;;;4194328;28;20926;-82
2021/05/07 06:21:38;;;;;;;4.87;3.40;;;6.30;98.30;;;;;;4195115;28;20527;-82
2021/05/07 06:23:43;;;;;;;4.57;3.70;;;6.40;98.30;;;;;;4194777;28;20514;-82
2021/05/07 06:25:45;;;;;;;4.60;3.33;;;6.60;98.30;;;;;;4194093;28;20763;-82
2021/05/07 06:27:47;;;;;;;5.60;3.40;;;6.60;98.30;;;;;;4193982;28;20475;-82
2021/05/07 06:29:49;;;;;;;6.07;3.37;;;6.70;98.30;;;;;;4194548;28;20912;-82
2021/05/07 06:31:52;;;;;;;4.87;3.57;;;6.70;98.30;;;;;;4192634;28;20925;-81
2021/05/07 06:33:54;;;;;;;4.23;3.70;;;6.70;98.30;;;;;;4195440;28;20511;-82
2021/05/07 06:35:56;;;;;;;3.40;3.10;;;6.80;98.30;;;;;;4194128;28;20471;-82
2021/05/07 06:38:01;;;;;;;5.40;3.80;;;6.90;98.30;;;;;;4193439;28;20582;-82
2021/05/07 06:40:05;;;;;;;8.00;4.10;;;7.10;98.30;;;;;;4194569;28;20458;-82
2021/05/07 06:42:07;;;;;;;5.40;3.77;;;7.40;98.30;;;;;;4194833;28;20486;-82
2021/05/07 06:44:09;;;;;;;5.57;4.27;;;7.70;98.30;;;;;;4193659;28;20532;-82
2021/05/07 06:46:11;;;;;;;5.93;4.00;;;7.80;98.30;;;;;;4193524;28;20461;-83
2021/05/07 06:48:14;;;;;;;6.80;4.03;;;7.80;98.30;;;;;;4192353;28;20483;-81
2021/05/07 06:50:18;;;;;;;4.70;3.97;;;7.80;98.30;;;;;;4189316;28;20817;-82
2021/05/07 06:52:20;;;;;;;4.20;3.70;;;7.90;98.30;;;;;;4188284;28;20494;-82
2021/05/07 06:54:26;;;;;;;7.30;4.53;;;8.10;98.30;;;;;;4188958;28;20487;-81
2021/05/07 06:56:29;;;;;;;12.60;7.83;;;8.00;98.30;;;;;;4184253;28;20499;-82
2021/05/07 06:58:32;;;;;;;7.07;4.47;;;7.90;98.30;;;;;;4189552;28;21076;-82
2021/05/07 07:00:34;;;;;;;5.77;4.20;;;7.70;98.30;;;;;;4193248;28;20505;-82
2021/05/07 07:02:36;;;;;;;5.73;3.80;;;7.70;98.30;;;;;;4189234;28;20528;-81
2021/05/07 07:04:39;;;;;;;7.13;4.43;;;7.80;98.30;;;;;;4193964;28;20458;-81
2021/05/07 07:06:41;;;;;;;5.10;4.60;;;8.10;98.30;;;;;;4187028;28;20483;-82
2021/05/07 07:08:44;;;;;;;5.37;4.10;;;8.40;98.30;;;;;;4192891;28;20925;-83
2021/05/07 07:10:46;;;;;;;5.23;3.43;;;8.70;98.30;;;;;;4193986;28;20698;-81
2021/05/07 07:12:48;;;;;;;7.30;4.03;;;8.80;98.30;;;;;;4192742;28;20454;-82
2021/05/07 07:14:53;;;;;;;6.13;3.83;;;8.70;98.30;;;;;;4189811;28;20518;-83
2021/05/07 07:16:55;;;;;;;13.80;8.50;;;8.70;98.30;;;;;;4191456;28;20479;-83
2021/05/07 07:19:17;;;;;;;8.10;5.77;;;8.70;98.30;;;;;;4188134;28;20577;-84
2021/05/07 07:21:36;;;;;;;3.53;3.20;;;8.80;98.30;;;;;;4186390;28;20449;-83
2021/05/07 07:23:39;;;;;;;6.10;4.87;;;9.00;98.30;;;;;;4190823;28;20456;-83
2021/05/07 07:25:41;;;;;;;6.10;4.10;;;8.80;98.30;;;;;;4186652;28;20563;-84
2021/05/07 07:27:44;;;;;;;5.07;3.60;;;8.70;98.30;;;;;;4192505;28;21001;-84
2021/05/07 07:29:47;;;;;;;3.30;2.93;;;8.50;98.30;;;;;;4187532;28;20979;-83
2021/05/07 07:31:50;;;;;;;10.50;7.57;;;8.40;98.30;;;;;;4190084;28;20478;-84
2021/05/07 07:33:52;;;;;;;10.47;5.87;;;8.60;98.30;;;;;;4189814;28;21057;-83
2021/05/07 07:35:55;;;;;;;19.90;12.43;;;8.90;98.30;;;;;;4188727;28;20453;-84
2021/05/07 07:37:58;;;;;;;8.77;5.70;;;9.10;98.30;;;;;;4189990;28;20521;-84
2021/05/07 07:40:00;;;;;;;4.37;2.87;;;9.20;98.30;;;;;;4191419;28;20590;-83
2021/05/07 07:42:02;;;;;;;3.70;3.03;;;9.10;98.30;;;;;;4191141;28;20482;-84
2021/05/07 07:44:05;;;;;;;3.20;2.90;;;8.70;98.30;;;;;;4191792;28;20526;-84
2021/05/07 07:46:07;;;;;;;3.40;3.07;;;8.50;98.30;;;;;;4190545;28;21006;-84
2021/05/07 07:48:10;;;;;;;3.70;2.90;;;8.40;98.30;;;;;;4190244;28;20510;-83
2021/05/07 07:50:13;;;;;;;4.40;3.13;;;8.40;98.30;;;;;;4191072;28;20969;-82
2021/05/07 07:52:16;;;;;;;4.90;3.80;;;8.20;98.30;;;;;;4190392;28;20482;-84
2021/05/07 07:54:19;;;;;;;36.13;22.63;;;8.10;98.30;;;;;;4192368;28;20245;-83
2021/05/07 07:56:21;;;;;;;26.93;15.70;;;8.10;98.30;;;;;;4190767;28;20486;-83
2021/05/07 07:58:23;;;;;;;4.40;4.00;;;8.50;98.30;;;;;;4191744;28;20522;-83
2021/05/07 08:00:25;;;;;;;3.70;3.40;;;8.80;98.30;;;;;;4191223;28;20565;-84
2021/05/07 08:02:29;;;;;;;5.20;3.33;;;9.10;98.30;;;;;;4193071;28;21073;-83
2021/05/07 08:04:33;;;;;;;3.20;2.90;;;9.20;98.30;;;;;;4182389;28;20467;-85
2021/05/07 08:06:35;;;;;;;6.53;2.90;;;9.40;98.30;;;;;;4190967;28;20483;-84
2021/05/07 08:08:38;;;;;;;4.60;3.33;;;9.60;98.30;;;;;;4199071;28;20497;-83
2021/05/07 08:10:41;;;;;;;4.67;3.13;;;9.70;98.30;;;;;;4195310;28;20882;-83
2021/05/07 08:12:43;;;;;;;5.60;3.40;;;9.70;98.30;;;;;;4193863;28;20498;-83
2021/05/07 08:14:45;;;;;;;3.10;2.80;;;9.40;98.30;;;;;;4192448;28;20598;-83
2021/05/07 08:16:47;;;;;;;3.10;2.77;;;9.30;98.30;;;;;;4193591;28;20483;-83
2021/05/07 08:18:50;;;;;;;3.30;2.50;;;9.40;98.30;;;;;;4192085;28;20578;-83
2021/05/07 08:20:52;;;;;;;3.20;2.63;;;9.60;98.30;;;;;;4191595;28;20587;-82
2021/05/07 08:22:58;;;;;;;3.90;2.83;;;9.50;98.30;;;;;;4194576;28;20508;-82
2021/05/07 08:25:00;;;;;;;5.23;2.80;;;9.40;98.30;;;;;;4195638;28;20505;-83
2021/05/07 08:27:36;;;;;;;2.90;2.70;;;9.50;98.30;;;;;;4198011;28;20507;-82
2021/05/07 08:32:39;;;;;;;4.43;2.50;;;9.20;98.30;;;;;;4196455;28;20494;-82
2021/05/07 08:34:44;;;;;;;3.50;2.20;;;9.10;98.30;;;;;;4195145;28;20520;-81
2021/05/07 08:36:46;;;;;;;4.07;2.70;;;8.90;98.30;;;;;;4192383;28;20918;-82
2021/05/07 08:38:48;;;;;;;4.27;2.90;;;9.20;98.30;;;;;;4189559;28;20995;-82
2021/05/07 08:40:50;;;;;;;4.10;2.47;;;9.50;98.30;;;;;;4189869;28;20564;-81
2021/05/07 08:42:54;;;;;;;3.57;2.70;;;9.80;98.30;;;;;;4196951;28;20483;-83
2021/05/07 08:44:56;;;;;;;2.33;2.13;;;10.00;98.30;;;;;;4193021;28;20504;-82
2021/05/07 08:47:00;;;;;;;3.30;2.40;;;9.90;98.30;;;;;;4193883;28;20582;-83
2021/05/07 08:49:06;;;;;;;4.73;2.70;;;10.00;98.30;;;;;;4195499;28;20450;-82
2021/05/07 08:51:08;;;;;;;3.40;2.60;;;10.00;98.30;;;;;;4203475;28;20482;-83
2021/05/07 08:53:25;;;;;;;5.97;2.90;;;10.00;98.30;;;;;;4201144;28;20494;-82
2021/05/07 08:55:31;;;;;;;5.93;3.07;;;10.00;98.30;;;;;;4200631;28;20491;-83
2021/05/07 08:57:38;;;;;;;3.03;2.60;;;10.20;98.30;;;;;;4196129;28;20482;-82
2021/05/07 08:59:42;;;;;;;4.20;2.60;;;10.40;98.30;;;;;;4197086;28;20479;-83
2021/05/07 09:01:46;;;;;;;8.23;3.60;;;10.30;98.30;;;;;;4195467;28;21061;-82
2021/05/07 09:03:49;;;;;;;6.43;3.13;;;10.50;98.30;;;;;;4192826;28;20483;-83
2021/05/07 09:05:51;;;;;;;4.10;2.80;;;10.40;98.30;;;;;;4193663;28;20570;-82
2021/05/07 09:07:54;;;;;;;3.73;2.90;;;10.00;98.30;;;;;;4194808;28;20491;-83
2021/05/07 09:10:00;;;;;;;4.63;2.90;;;10.00;98.30;;;;;;4191021;28;20855;-83
2021/05/07 09:12:03;;;;;;;3.07;2.53;;;10.10;98.30;;;;;;4193506;28;20518;-83
2021/05/07 09:14:08;;;;;;;4.30;2.90;;;10.10;98.30;;;;;;4194779;28;20517;-82
2021/05/07 09:16:12;;;;;;;6.10;3.30;;;10.00;98.30;;;;;;4197500;28;20526;-82
2021/05/07 09:18:16;;;;;;;12.97;8.00;;;10.10;98.30;;;;;;4194027;28;20514;-83
2021/05/07 09:20:18;;;;;;;3.77;3.37;;;10.00;98.30;;;;;;4194941;28;20490;-83
2021/05/07 09:22:28;;;;;;;3.33;2.60;;;9.90;98.30;;;;;;4197095;28;20836;-81
2021/05/07 09:24:36;;;;;;;2.60;2.40;;;9.70;98.30;;;;;;4195620;28;20486;-82
2021/05/07 09:26:45;;;;;;;3.60;2.10;;;9.20;98.30;;;;;;4195751;28;20583;-83
2021/05/07 09:28:58;;;;;;;3.10;2.33;;;8.70;98.30;;;;;;4195513;28;20574;-82
2021/05/07 09:31:11;;;;;;;2.57;2.37;;;8.20;98.30;;;;;;4194860;28;20489;-84
2021/05/07 09:33:16;;;;;;;17.60;12.50;;;7.80;98.30;;;;;;4193845;28;21032;-83
2021/05/07 09:35:19;;;;;;;28.27;15.47;;;7.80;98.30;;;;;;4192563;28;20482;-83
2021/05/07 09:37:22;;;;;;;4.50;2.83;;;7.70;98.30;;;;;;4193414;28;20527;-82
2021/05/07 09:39:27;;;;;;;5.83;3.43;;;7.70;98.30;;;;;;4195321;28;20552;-83
2021/05/07 09:41:39;;;;;;;5.40;3.00;;;7.90;98.30;;;;;;4193796;28;20464;-82
2021/05/07 09:43:41;;;;;;;3.53;2.37;;;8.10;98.30;;;;;;4195449;28;20803;-82
2021/05/07 09:45:46;;;;;;;3.60;2.57;;;8.30;98.30;;;;;;4194503;28;20510;-83
2021/05/07 09:47:51;;;;;;;5.97;2.37;;;8.40;98.30;;;;;;4194141;28;20469;-83
2021/05/07 09:50:02;;;;;;;3.20;2.50;;;8.50;98.30;;;;;;4194707;28;20462;-82
2021/05/07 09:52:05;;;;;;;3.90;2.40;;;8.60;98.30;;;;;;4191007;28;20490;-83
2021/05/07 09:54:08;;;;;;;3.43;2.30;;;8.60;98.30;;;;;;4194886;28;20999;-82
2021/05/07 09:56:15;;;;;;;3.30;2.80;;;8.50;98.30;;;;;;4187608;28;20482;-81
2021/05/07 09:58:20;;;;;;;3.83;2.50;;;8.50;98.30;;;;;;4189030;28;20522;-83
2021/05/07 10:00:26;;;;;;;3.83;3.03;;;8.60;98.30;;;;;;4184788;28;20487;-83
2021/05/07 10:02:29;;;;;;;3.17;2.70;;;8.80;98.30;;;;;;4188962;28;20462;-82
2021/05/07 10:04:33;;;;;;;5.13;3.20;;;9.10;98.30;;;;;;4190642;28;20485;-82
2021/05/07 10:06:38;;;;;;;6.40;3.80;;;9.60;98.30;;;;;;4190189;28;20507;-83
2021/05/07 10:08:47;;;;;;;6.03;3.23;;;10.10;98.30;;;;;;4189203;28;20994;-83
2021/05/07 10:10:58;;;;;;;4.73;3.43;;;10.40;98.30;;;;;;4192017;28;20990;-82
2021/05/07 10:13:02;;;;;;;8.67;3.80;;;10.90;98.30;;;;;;4189777;28;20521;-84
2021/05/07 10:15:05;;;;;;;69.20;43.27;;;11.30;98.30;;;;;;4192884;28;20510;-83
2021/05/07 10:17:10;;;;;;;27.57;14.73;;;11.60;98.30;;;;;;4190020;28;20491;-84
2021/05/07 10:19:16;;;;;;;7.37;4.30;;;11.80;98.30;;;;;;4191899;28;20487;-83
2021/05/07 10:21:19;;;;;;;4.70;3.40;;;11.80;98.30;;;;;;4193282;28;20483;-83
2021/05/07 10:23:22;;;;;;;4.10;3.37;;;11.60;98.30;;;;;;4201340;28;20478;-83
2021/05/07 10:25:28;;;;;;;5.20;3.70;;;11.40;98.30;;;;;;4190626;28;21217;-82
2021/05/07 10:27:30;;;;;;;3.40;3.10;;;11.00;98.30;;;;;;4191092;28;20487;-83
2021/05/07 10:29:33;;;;;;;7.00;3.67;;;10.60;98.30;;;;;;4191831;28;20475;-82
2021/05/07 10:31:45;;;;;;;3.80;2.80;;;10.00;98.30;;;;;;4193909;28;20486;-83
2021/05/07 10:33:57;;;;;;;3.70;2.90;;;9.60;98.30;;;;;;4195050;28;20478;-82
2021/05/07 10:35:59;;;;;;;7.57;6.03;;;9.30;98.30;;;;;;4192048;28;20510;-82
2021/05/07 10:38:13;;;;;;;10.70;6.30;;;9.20;98.30;;;;;;4195324;28;20525;-82
2021/05/07 10:40:23;;;;;;;9.73;4.00;;;9.10;98.30;;;;;;4194071;28;20574;-82
2021/05/07 10:42:25;;;;;;;4.10;2.87;;;9.10;98.30;;;;;;4186425;28;20493;-82
2021/05/07 10:44:40;;;;;;;4.60;2.63;;;9.10;98.30;;;;;;4195083;28;20586;-83
2021/05/07 10:46:43;;;;;;;3.70;2.50;;;9.30;98.30;;;;;;4194698;28;20481;-83
2021/05/07 10:48:51;;;;;;;4.03;2.43;;;9.60;98.30;;;;;;4194717;28;20968;-83
2021/05/07 10:50:56;;;;;;;2.83;2.47;;;10.10;98.30;;;;;;4195240;28;20573;-82
2021/05/07 10:52:58;;;;;;;2.30;2.10;;;10.40;98.30;;;;;;4193370;28;21018;-82
2021/05/07 10:55:06;;;;;;;5.00;3.70;;;10.90;98.30;;;;;;4192691;28;20483;-83